Time;durP1;ratioP1;P1;durP2;ratioP2;P2;SDS_P1;SDS_P2;PMS_P1;PMS_P2;Temp;Humidity;BMP_temperature;BMP_pressure;BME280_temperature;BME280_humidity;BME280_pressure;Samples;Min_cycle;Max_cycle;Signal;HPM_P1;HPM_P2
2021/12/19 00:09:29;;;;;;;1.37;1.30;;;2.90;99.90;;;;;;5120918;28;20242;-50
2021/12/19 00:11:56;;;;;;;1.20;1.20;;;2.80;99.90;;;;;;5085507;28;20194;-48
2021/12/19 00:14:23;;;;;;;1.30;1.20;;;2.80;99.90;;;;;;5087065;28;20189;-52
2021/12/19 00:16:54;;;;;;;0.83;0.83;;;2.90;99.90;;;;;;5090354;28;20177;-55
2021/12/19 00:19:21;;;;;;;2.10;1.40;;;2.90;99.90;;;;;;5089501;28;20189;-55
2021/12/19 00:21:48;;;;;;;4.10;1.90;;;2.90;99.90;;;;;;5107216;28;20224;-50
2021/12/19 00:24:15;;;;;;;3.10;2.33;;;2.90;99.90;;;;;;5106867;28;20216;-55
2021/12/19 00:26:42;;;;;;;1.93;1.67;;;2.80;99.90;;;;;;5090237;28;20272;-54
2021/12/19 00:29:09;;;;;;;1.40;1.30;;;2.70;99.90;;;;;;5089224;28;20189;-57
2021/12/19 00:31:37;;;;;;;2.80;1.57;;;2.70;99.90;;;;;;5090478;28;20212;-58
2021/12/19 00:34:04;;;;;;;3.10;1.70;;;2.70;99.90;;;;;;5089799;28;20291;-54
2021/12/19 00:36:30;;;;;;;1.20;1.03;;;2.80;99.90;;;;;;5089667;28;20189;-48
2021/12/19 00:38:56;;;;;;;2.93;0.83;;;2.80;99.90;;;;;;5089640;28;20181;-48
2021/12/19 00:41:23;;;;;;;1.43;1.33;;;2.80;99.90;;;;;;5106028;28;20217;-49
2021/12/19 00:44:06;;;;;;;4.33;1.50;;;2.80;99.90;;;;;;5106536;28;20185;-46
2021/12/19 00:46:41;;;;;;;4.33;1.27;;;2.80;99.90;;;;;;5089423;28;20181;-51
2021/12/19 00:49:07;;;;;;;3.37;1.97;;;2.80;99.90;;;;;;5090148;28;20261;-48
2021/12/19 00:51:33;;;;;;;2.37;1.90;;;2.70;99.90;;;;;;5089458;28;20219;-50
2021/12/19 00:53:59;;;;;;;1.63;1.17;;;2.70;99.90;;;;;;5088899;28;20274;-48
2021/12/19 00:56:25;;;;;;;1.97;1.53;;;2.80;99.90;;;;;;5089717;28;20185;-48
2021/12/19 00:58:51;;;;;;;2.73;1.70;;;2.80;99.90;;;;;;5088980;28;20189;-47
2021/12/19 01:01:17;;;;;;;3.13;1.47;;;2.70;99.90;;;;;;5089085;28;20192;-52
2021/12/19 01:03:46;;;;;;;1.17;1.07;;;2.70;99.90;;;;;;5106833;27;20236;-45
2021/12/19 01:06:16;;;;;;;3.20;1.63;;;2.70;99.90;;;;;;5107433;27;20188;-51
2021/12/19 01:08:43;;;;;;;2.80;2.13;;;2.70;99.90;;;;;;5143154;27;20176;-47
2021/12/19 01:11:09;;;;;;;2.93;2.37;;;2.60;99.90;;;;;;5119437;27;20218;-49
2021/12/19 01:13:34;;;;;;;5.13;2.07;;;2.60;99.90;;;;;;5110867;27;20180;-45
2021/12/19 01:16:01;;;;;;;2.47;1.70;;;2.60;99.90;;;;;;5107711;27;20251;-51
2021/12/19 01:18:28;;;;;;;3.33;2.20;;;2.60;99.90;;;;;;5108155;27;20184;-51
2021/12/19 01:20:54;;;;;;;1.57;1.20;;;2.60;99.90;;;;;;5108198;27;20184;-51
2021/12/19 01:23:21;;;;;;;1.57;1.33;;;2.60;99.90;;;;;;5108732;27;20215;-50
2021/12/19 01:25:49;;;;;;;4.57;2.50;;;2.60;99.90;;;;;;5108018;27;20172;-50
2021/12/19 01:28:15;;;;;;;2.33;1.47;;;2.60;99.90;;;;;;5108438;27;20188;-49
2021/12/19 01:30:41;;;;;;;4.90;1.83;;;2.60;99.90;;;;;;5108224;27;20206;-49
2021/12/19 01:33:07;;;;;;;1.53;1.40;;;2.70;99.90;;;;;;5107085;27;20177;-48
2021/12/19 01:35:33;;;;;;;1.47;1.27;;;2.70;99.90;;;;;;5107654;27;20181;-47
2021/12/19 01:37:59;;;;;;;1.87;1.43;;;2.70;99.90;;;;;;5107030;27;20176;-48
2021/12/19 01:40:25;;;;;;;2.50;0.97;;;2.70;99.90;;;;;;5108457;27;20173;-46
2021/12/19 01:42:56;;;;;;;2.73;1.30;;;2.70;99.90;;;;;;5107279;27;20208;-48
2021/12/19 01:45:31;;;;;;;2.07;1.87;;;2.70;99.90;;;;;;5108613;27;20275;-48
2021/12/19 01:48:01;;;;;;;0.83;0.83;;;2.70;99.90;;;;;;5108141;27;20180;-49
2021/12/19 01:50:29;;;;;;;1.60;1.50;;;2.70;99.90;;;;;;5108161;27;20195;-50
2021/12/19 01:52:56;;;;;;;3.80;1.70;;;2.70;99.90;;;;;;5107990;27;20269;-47
2021/12/19 01:55:22;;;;;;;1.30;0.93;;;2.70;99.90;;;;;;5107216;27;20254;-51
2021/12/19 01:57:48;;;;;;;1.40;1.00;;;2.60;99.90;;;;;;5108265;27;20227;-48
2021/12/19 02:00:25;;;;;;;1.00;0.93;;;2.70;99.90;;;;;;5108097;27;20192;-47
2021/12/19 02:02:52;;;;;;;1.87;1.67;;;2.70;99.90;;;;;;5108206;27;20311;-53
2021/12/19 02:05:18;;;;;;;1.70;1.20;;;2.70;99.90;;;;;;5107571;27;20195;-49
2021/12/19 02:07:46;;;;;;;1.03;0.70;;;2.60;99.90;;;;;;5107362;27;20185;-50
2021/12/19 02:10:17;;;;;;;0.93;0.80;;;2.70;99.90;;;;;;5107703;27;20196;-46
2021/12/19 02:12:47;;;;;;;1.33;1.23;;;2.70;99.90;;;;;;5106817;27;20240;-50
2021/12/19 02:15:17;;;;;;;2.17;1.70;;;2.60;99.90;;;;;;5108043;27;20188;-47
2021/12/19 02:17:43;;;;;;;1.60;1.47;;;2.60;99.90;;;;;;5107459;27;20272;-52
2021/12/19 02:20:14;;;;;;;0.80;0.80;;;2.60;99.90;;;;;;5108486;27;20191;-47
2021/12/19 02:22:40;;;;;;;0.90;0.90;;;2.60;99.90;;;;;;5106933;27;20216;-46
2021/12/19 02:25:07;;;;;;;1.53;1.10;;;2.60;99.90;;;;;;5106799;27;20195;-47
2021/12/19 02:27:33;;;;;;;3.50;1.87;;;2.60;99.90;;;;;;5107047;27;20248;-50
2021/12/19 02:29:59;;;;;;;1.13;0.87;;;2.60;99.90;;;;;;5107007;27;20188;-45
2021/12/19 02:32:28;;;;;;;1.80;1.13;;;2.60;99.90;;;;;;5107912;27;20230;-51
2021/12/19 02:34:56;;;;;;;1.23;1.13;;;2.60;99.90;;;;;;5107079;27;20180;-47
2021/12/19 02:38:15;;;;;;;2.27;0.30;;;2.60;99.90;;;;;;5107620;28;20184;-52
2021/12/19 02:48:15;;;;;;;1.77;0.93;;;2.50;99.90;;;;;;5124618;27;20197;-46
2021/12/19 02:50:50;;;;;;;1.80;1.10;;;2.50;99.90;;;;;;5107794;27;20188;-50
2021/12/19 02:53:26;;;;;;;1.73;1.40;;;2.50;99.90;;;;;;5107395;27;20180;-53
2021/12/19 02:55:52;;;;;;;2.40;1.60;;;2.60;99.90;;;;;;5105629;27;20192;-51
2021/12/19 02:58:18;;;;;;;1.03;1.03;;;2.50;99.90;;;;;;5106914;27;20199;-53
2021/12/19 03:00:44;;;;;;;0.93;0.93;;;2.60;99.90;;;;;;5106411;27;20181;-51
2021/12/19 03:03:10;;;;;;;0.63;0.63;;;2.60;99.90;;;;;;5107523;27;20216;-53
2021/12/19 03:05:37;;;;;;;1.80;0.97;;;2.60;99.90;;;;;;5105931;27;20192;-49
2021/12/19 03:08:04;;;;;;;1.60;1.37;;;2.60;99.90;;;;;;5106621;27;20228;-53
2021/12/19 03:18:33;;;;;;;1.03;0.97;;;2.70;99.90;;;;;;5123143;27;20195;-59
2021/12/19 03:20:59;;;;;;;1.50;0.90;;;2.60;99.90;;;;;;5107110;27;20173;-50
2021/12/19 03:23:25;;;;;;;0.97;0.70;;;2.60;99.90;;;;;;5106428;27;20237;-49
2021/12/19 03:25:52;;;;;;;1.33;1.00;;;2.60;99.90;;;;;;5105841;27;20185;-53
2021/12/19 03:28:18;;;;;;;1.73;1.17;;;2.70;99.90;;;;;;5106155;27;20180;-47
2021/12/19 03:30:46;;;;;;;1.37;0.90;;;2.70;99.90;;;;;;5105506;27;20188;-45
2021/12/19 03:33:12;;;;;;;1.53;0.90;;;2.70;99.90;;;;;;5107252;27;20185;-45
2021/12/19 03:35:40;;;;;;;1.13;0.70;;;2.70;99.90;;;;;;5106405;27;20185;-51
2021/12/19 03:38:10;;;;;;;1.30;0.97;;;2.70;99.90;;;;;;5107227;27;20809;-54
2021/12/19 03:40:39;;;;;;;1.20;0.93;;;2.70;99.90;;;;;;5106301;28;20184;-56
2021/12/19 03:43:12;;;;;;;0.87;0.87;;;2.60;99.90;;;;;;5105664;28;20303;-49
2021/12/19 03:45:39;;;;;;;1.60;0.37;;;2.60;99.90;;;;;;5106032;28;20211;-54
2021/12/19 03:48:10;;;;;;;1.03;0.70;;;2.60;99.90;;;;;;5105506;27;20218;-54
2021/12/19 03:50:36;;;;;;;1.27;1.17;;;2.60;99.90;;;;;;5107332;27;20188;-57
2021/12/19 03:53:03;;;;;;;1.27;0.63;;;2.60;99.90;;;;;;5105705;27;20245;-59
2021/12/19 03:55:28;;;;;;;1.07;0.70;;;2.70;99.90;;;;;;5105882;28;20220;-51
2021/12/19 03:57:57;;;;;;;1.17;1.17;;;2.70;99.90;;;;;;5105577;28;20195;-52
2021/12/19 04:00:27;;;;;;;0.50;0.50;;;2.60;99.90;;;;;;5105561;28;20271;-53
2021/12/19 04:02:58;;;;;;;1.93;0.90;;;2.60;99.90;;;;;;5105369;28;20281;-48
2021/12/19 04:05:27;;;;;;;5.13;3.70;;;2.70;99.90;;;;;;5105700;28;20177;-49
2021/12/19 04:07:53;;;;;;;21.97;12.87;;;2.70;99.90;;;;;;5106452;28;20192;-58
2021/12/19 04:10:21;;;;;;;0.70;0.63;;;2.80;99.90;;;;;;5105676;28;20275;-54
2021/12/19 04:12:48;;;;;;;1.10;1.00;;;2.80;99.90;;;;;;5106507;28;20184;-59
2021/12/19 04:15:14;;;;;;;0.93;0.53;;;2.70;99.90;;;;;;5106207;28;20228;-51
2021/12/19 04:17:40;;;;;;;1.50;0.60;;;2.70;99.90;;;;;;5105119;28;20197;-51
2021/12/19 04:20:07;;;;;;;0.70;0.70;;;2.60;99.90;;;;;;5105657;28;20331;-51
2021/12/19 04:22:34;;;;;;;0.93;0.93;;;2.60;99.90;;;;;;5105334;28;20215;-51
2021/12/19 04:25:00;;;;;;;1.37;0.67;;;2.70;99.90;;;;;;5106080;28;20188;-51
2021/12/19 04:27:27;;;;;;;1.40;0.67;;;2.70;99.90;;;;;;5105470;28;20275;-54
2021/12/19 04:29:54;;;;;;;0.63;0.63;;;2.80;99.90;;;;;;5106811;28;20188;-55
2021/12/19 04:32:26;;;;;;;1.40;0.90;;;2.70;99.90;;;;;;5105660;28;20275;-49
2021/12/19 04:34:52;;;;;;;0.50;0.50;;;2.70;99.90;;;;;;5105321;28;20185;-45
2021/12/19 04:40:18;;;;;;;0.87;0.67;;;2.70;99.90;;;;;;5062765;28;20191;-58
2021/12/19 04:59:05;;;;;;;0.97;0.97;;;2.70;99.90;;;;;;5063696;28;20198;-50
2021/12/19 05:14:47;;;;;;;0.50;0.50;;;2.70;99.90;;;;;;5038470;28;20263;-45
2021/12/19 05:17:19;;;;;;;0.87;0.87;;;2.70;99.90;;;;;;5109461;27;20278;-49
2021/12/19 05:19:53;;;;;;;1.03;0.40;;;2.60;99.90;;;;;;5108962;27;20199;-48
2021/12/19 05:22:22;;;;;;;1.33;0.97;;;2.70;99.90;;;;;;5108904;27;20212;-47
2021/12/19 05:25:00;;;;;;;0.87;0.80;;;2.70;99.90;;;;;;5108390;27;20188;-55
2021/12/19 05:27:26;;;;;;;1.10;0.53;;;2.70;99.90;;;;;;5107813;27;20275;-55
2021/12/19 05:29:52;;;;;;;0.50;0.50;;;2.70;99.90;;;;;;5108996;27;20283;-50
2021/12/19 05:32:18;;;;;;;1.00;0.73;;;2.70;99.90;;;;;;5107555;27;20243;-50
2021/12/19 05:34:43;;;;;;;2.13;0.80;;;2.70;99.90;;;;;;5108570;27;20538;-51
2021/12/19 05:45:23;;;;;;;2.43;0.67;;;2.90;99.90;;;;;;5133212;27;20190;-54
2021/12/19 05:47:50;;;;;;;0.87;0.87;;;2.80;99.90;;;;;;5114969;27;20177;-47
2021/12/19 05:50:20;;;;;;;0.50;0.50;;;2.90;99.90;;;;;;5117313;27;20486;-55
2021/12/19 05:52:48;;;;;;;0.23;0.20;;;2.90;99.90;;;;;;5119822;27;20275;-50
2021/12/19 05:55:16;;;;;;;0.63;0.30;;;2.90;99.90;;;;;;5107516;27;20228;-48
2021/12/19 05:57:44;;;;;;;0.00;0.00;;;2.90;99.90;;;;;;5116317;27;20188;-58
2021/12/19 06:00:17;;;;;;;0.30;0.30;;;2.80;99.90;;;;;;5110987;27;20293;-58
2021/12/19 06:02:43;;;;;;;0.43;0.43;;;2.90;99.90;;;;;;5119255;27;20204;-53
2021/12/19 06:05:10;;;;;;;0.33;0.33;;;2.90;99.90;;;;;;5110194;27;20208;-45
2021/12/19 06:07:36;;;;;;;0.73;0.20;;;2.80;99.90;;;;;;5120816;27;20164;-47
2021/12/19 06:10:04;;;;;;;1.03;0.20;;;2.90;99.90;;;;;;5129465;27;20204;-46
2021/12/19 06:12:31;;;;;;;0.50;0.30;;;3.00;99.90;;;;;;5116398;27;20206;-47
2021/12/19 06:14:57;;;;;;;0.73;0.37;;;3.00;99.90;;;;;;5106904;27;20200;-50
2021/12/19 06:17:23;;;;;;;0.40;0.40;;;3.00;99.90;;;;;;5106624;27;20621;-48
2021/12/19 06:19:49;;;;;;;0.27;0.27;;;3.00;99.90;;;;;;5107901;27;20219;-48
2021/12/19 06:22:15;;;;;;;0.77;0.33;;;3.10;99.90;;;;;;5109559;27;20212;-52
2021/12/19 06:24:41;;;;;;;0.87;0.60;;;3.10;99.90;;;;;;5107967;27;20214;-53
2021/12/19 06:27:07;;;;;;;0.40;0.40;;;3.00;99.90;;;;;;5109290;27;20195;-50
2021/12/19 06:29:33;;;;;;;0.53;0.20;;;3.10;99.90;;;;;;5109094;27;20258;-50
2021/12/19 06:31:59;;;;;;;0.20;0.20;;;3.10;99.90;;;;;;5108033;27;20194;-52
2021/12/19 06:34:25;;;;;;;0.47;0.47;;;3.10;99.90;;;;;;5108899;27;20211;-47
2021/12/19 06:36:52;;;;;;;0.50;0.50;;;3.10;99.90;;;;;;5107924;27;20188;-53
2021/12/19 06:39:20;;;;;;;0.30;0.20;;;3.10;99.90;;;;;;5109207;27;20270;-49
2021/12/19 06:41:46;;;;;;;0.27;0.27;;;3.10;99.90;;;;;;5108530;27;20189;-46
2021/12/19 06:44:12;;;;;;;0.40;0.40;;;3.10;99.90;;;;;;5109037;27;20204;-46
2021/12/19 06:46:38;;;;;;;0.23;0.23;;;3.10;99.90;;;;;;5108454;27;20184;-45
2021/12/19 06:49:04;;;;;;;0.27;0.27;;;3.10;99.90;;;;;;5108084;27;20216;-46
2021/12/19 06:51:33;;;;;;;0.20;0.20;;;3.10;99.90;;;;;;5109247;27;20192;-43
2021/12/19 06:54:00;;;;;;;0.10;0.10;;;3.10;99.90;;;;;;5108055;27;20300;-47
2021/12/19 06:56:26;;;;;;;0.40;0.40;;;3.10;99.90;;;;;;5108183;27;20257;-47
2021/12/19 06:58:52;;;;;;;0.07;0.07;;;3.10;99.90;;;;;;5107858;27;20256;-47
2021/12/19 07:01:17;;;;;;;0.40;0.33;;;3.10;99.90;;;;;;5109169;27;20252;-47
2021/12/19 07:03:43;;;;;;;1.93;1.83;;;3.10;99.90;;;;;;5107890;27;20235;-51
2021/12/19 07:06:09;;;;;;;0.20;0.20;;;3.10;99.90;;;;;;5107560;27;20189;-51
2021/12/19 07:08:36;;;;;;;0.90;0.90;;;3.10;99.90;;;;;;5107457;27;20221;-48
2021/12/19 07:11:02;;;;;;;0.40;0.40;;;3.10;99.90;;;;;;5106847;27;20188;-46
2021/12/19 07:13:28;;;;;;;0.30;0.30;;;3.00;99.90;;;;;;5107331;27;20333;-47
2021/12/19 07:15:56;;;;;;;0.30;0.30;;;3.00;99.90;;;;;;5106723;27;20272;-45
2021/12/19 07:18:21;;;;;;;0.37;0.33;;;3.10;99.90;;;;;;5107852;27;20172;-44
2021/12/19 07:20:47;;;;;;;0.47;0.47;;;3.00;99.90;;;;;;5106644;27;20187;-57
2021/12/19 07:23:18;;;;;;;0.20;0.20;;;3.10;99.90;;;;;;5107858;27;20220;-48
2021/12/19 07:25:44;;;;;;;0.53;0.27;;;3.10;99.90;;;;;;5106732;27;20335;-48
2021/12/19 07:28:11;;;;;;;0.13;0.13;;;3.10;99.90;;;;;;5106414;27;20192;-49
2021/12/19 07:30:38;;;;;;;0.40;0.17;;;3.00;99.90;;;;;;5107323;27;20180;-48
2021/12/19 07:33:06;;;;;;;0.30;0.27;;;3.00;99.90;;;;;;5106445;27;20192;-49
2021/12/19 07:35:35;;;;;;;0.17;0.13;;;3.00;99.90;;;;;;5108002;27;20215;-51
2021/12/19 07:38:04;;;;;;;0.10;0.10;;;2.90;99.90;;;;;;5106891;27;20172;-46
2021/12/19 07:40:38;;;;;;;0.10;0.10;;;2.90;99.90;;;;;;5107932;27;20203;-45
2021/12/19 07:43:08;;;;;;;9.60;3.43;;;2.90;99.90;;;;;;5106747;27;20223;-43
2021/12/19 07:45:34;;;;;;;0.23;0.23;;;2.90;99.90;;;;;;5106590;27;20184;-51
2021/12/19 07:48:00;;;;;;;0.10;0.10;;;2.90;99.90;;;;;;5107066;27;20284;-51
2021/12/19 07:50:27;;;;;;;0.30;0.30;;;2.90;99.90;;;;;;5106064;27;20196;-46
2021/12/19 07:52:54;;;;;;;0.87;0.40;;;2.90;99.90;;;;;;5108442;27;20188;-50
2021/12/19 07:55:21;;;;;;;0.43;0.43;;;2.90;99.90;;;;;;5106455;28;20315;-46
2021/12/19 07:57:47;;;;;;;0.20;0.20;;;2.90;99.90;;;;;;5107823;28;20184;-55
2021/12/19 08:00:14;;;;;;;0.43;0.43;;;2.90;99.90;;;;;;5106808;28;20300;-53
2021/12/19 08:02:45;;;;;;;0.40;0.33;;;2.90;99.90;;;;;;5106450;28;20208;-48
2021/12/19 08:05:13;;;;;;;0.43;0.43;;;2.90;99.90;;;;;;5107044;28;20191;-49
2021/12/19 08:07:43;;;;;;;0.40;0.30;;;2.90;99.90;;;;;;5106487;28;20240;-50
2021/12/19 08:12:36;;;;;;;0.30;0.30;;;2.80;99.90;;;;;;5123032;28;20177;-57
2021/12/19 08:15:04;;;;;;;0.67;0.20;;;2.80;99.90;;;;;;5107726;28;20199;-58
2021/12/19 08:17:31;;;;;;;0.30;0.30;;;2.70;99.90;;;;;;5106658;28;20192;-50
2021/12/19 08:19:58;;;;;;;0.40;0.40;;;2.70;99.90;;;;;;5106907;28;20184;-50
2021/12/19 08:22:24;;;;;;;0.70;0.50;;;2.70;99.90;;;;;;5107264;28;20212;-46
2021/12/19 08:24:50;;;;;;;0.40;0.40;;;2.70;99.90;;;;;;5105442;28;20185;-52
2021/12/19 08:27:17;;;;;;;0.70;0.63;;;2.60;99.90;;;;;;5106138;28;20195;-50
2021/12/19 08:29:43;;;;;;;0.13;0.13;;;2.60;99.90;;;;;;5105337;28;20302;-47
2021/12/19 08:32:08;;;;;;;0.20;0.20;;;2.60;99.90;;;;;;5107344;28;20279;-45
2021/12/19 08:34:35;;;;;;;0.40;0.40;;;2.60;99.90;;;;;;5106482;28;20196;-52
2021/12/19 08:37:02;;;;;;;0.70;0.70;;;2.70;99.90;;;;;;5108764;27;20180;-53
2021/12/19 08:39:28;;;;;;;0.43;0.43;;;2.70;99.90;;;;;;5124915;27;20257;-46
2021/12/19 08:41:54;;;;;;;0.40;0.40;;;2.70;99.90;;;;;;5117471;27;20175;-53
2021/12/19 08:44:21;;;;;;;1.07;0.43;;;2.70;99.90;;;;;;5121383;27;20191;-54
2021/12/19 08:46:46;;;;;;;0.67;0.67;;;2.80;99.90;;;;;;5111605;27;20172;-51
2021/12/19 08:49:13;;;;;;;0.30;0.30;;;2.80;99.90;;;;;;5109961;27;20287;-51
2021/12/19 08:51:39;;;;;;;1.43;0.53;;;2.70;99.90;;;;;;5109084;27;20189;-57
2021/12/19 08:54:07;;;;;;;6.70;2.27;;;2.70;99.90;;;;;;5122474;27;20218;-55
2021/12/19 08:56:35;;;;;;;1.70;0.60;;;2.70;99.90;;;;;;5115723;27;20173;-45
2021/12/19 08:59:01;;;;;;;0.40;0.40;;;2.70;99.90;;;;;;5108779;27;20177;-44
2021/12/19 09:01:27;;;;;;;0.97;0.97;;;2.70;99.90;;;;;;5109777;27;20196;-45
2021/12/19 09:03:53;;;;;;;0.63;0.63;;;2.50;99.90;;;;;;5091756;27;20216;-48
2021/12/19 09:06:19;;;;;;;0.87;0.87;;;2.50;99.90;;;;;;5109999;27;20192;-48
2021/12/19 09:08:45;;;;;;;0.97;0.67;;;2.50;99.90;;;;;;5109536;27;20246;-52
2021/12/19 09:11:12;;;;;;;0.60;0.60;;;2.50;99.90;;;;;;5110769;27;20180;-48
2021/12/19 09:13:38;;;;;;;0.50;0.50;;;2.60;99.90;;;;;;5109915;27;20229;-47
2021/12/19 09:16:04;;;;;;;0.73;0.60;;;2.60;99.90;;;;;;5110218;27;20196;-46
2021/12/19 09:18:30;;;;;;;0.53;0.53;;;2.60;99.90;;;;;;5109888;27;20191;-51
2021/12/19 09:20:56;;;;;;;0.70;0.70;;;2.70;99.90;;;;;;5108781;27;20188;-51
2021/12/19 09:23:22;;;;;;;0.37;0.37;;;2.80;99.90;;;;;;5109797;27;20223;-46
2021/12/19 09:25:48;;;;;;;0.97;0.93;;;2.80;99.90;;;;;;5108911;27;20220;-46
2021/12/19 09:28:15;;;;;;;0.77;0.70;;;2.80;99.90;;;;;;5109802;27;20188;-54
2021/12/19 09:30:43;;;;;;;0.77;0.47;;;2.80;99.90;;;;;;5109116;27;20192;-48
2021/12/19 09:33:09;;;;;;;0.50;0.50;;;2.80;99.90;;;;;;5109789;27;20346;-48
2021/12/19 09:35:35;;;;;;;1.63;0.60;;;2.80;99.90;;;;;;5108788;27;20322;-52
2021/12/19 09:38:02;;;;;;;1.80;0.97;;;2.80;99.90;;;;;;5108831;27;20267;-54
2021/12/19 09:40:36;;;;;;;0.60;0.60;;;2.90;99.90;;;;;;5109083;27;20173;-47
2021/12/19 09:43:11;;;;;;;0.50;0.50;;;2.80;99.90;;;;;;5108031;27;20290;-48
2021/12/19 09:45:37;;;;;;;0.20;0.20;;;2.80;99.90;;;;;;5109753;27;20194;-49
2021/12/19 09:48:03;;;;;;;0.90;0.90;;;2.80;99.90;;;;;;5108468;27;20173;-54
2021/12/19 09:50:30;;;;;;;0.67;0.67;;;2.80;99.90;;;;;;5109460;27;20220;-49
2021/12/19 09:52:56;;;;;;;0.43;0.43;;;2.70;99.90;;;;;;5109165;27;20180;-51
2021/12/19 09:55:22;;;;;;;0.30;0.30;;;2.80;99.90;;;;;;5108554;27;20454;-50
2021/12/19 09:57:50;;;;;;;1.40;0.77;;;2.80;99.90;;;;;;5108534;27;20272;-53
2021/12/19 10:00:16;;;;;;;0.50;0.50;;;2.90;99.90;;;;;;5109530;27;20196;-46
2021/12/19 10:02:44;;;;;;;0.93;0.80;;;2.90;99.90;;;;;;5109364;27;20287;-54
2021/12/19 10:05:28;;;;;;;0.37;0.30;;;3.00;99.90;;;;;;5102703;27;20196;-55
2021/12/19 10:08:00;;;;;;;0.20;0.20;;;3.00;99.90;;;;;;5095659;27;20190;-53
2021/12/19 10:11:14;;;;;;;1.27;0.60;;;3.00;99.90;;;;;;5098906;27;20188;-45
2021/12/19 10:13:35;;;;;;;1.17;1.17;;;2.90;99.90;;;;;;5108102;27;20200;-48
2021/12/19 10:16:20;;;;;;;0.67;0.67;;;2.90;99.90;;;;;;5116125;27;20191;-58
2021/12/19 10:18:52;;;;;;;1.07;0.40;;;2.80;99.90;;;;;;5098402;27;20180;-54
2021/12/19 10:21:22;;;;;;;0.50;0.47;;;2.70;99.90;;;;;;5143739;27;20290;-46
2021/12/19 10:23:48;;;;;;;0.47;0.47;;;2.80;99.90;;;;;;5098173;27;20228;-49
2021/12/19 10:26:15;;;;;;;0.90;0.90;;;2.90;99.90;;;;;;5091710;27;20265;-55
2021/12/19 10:28:58;;;;;;;0.27;0.27;;;2.80;99.90;;;;;;5098958;27;20185;-55
2021/12/19 10:31:25;;;;;;;1.37;1.00;;;2.80;99.90;;;;;;5110210;27;20196;-58
2021/12/19 10:33:53;;;;;;;1.33;1.20;;;2.90;99.90;;;;;;5112248;27;20262;-56
2021/12/19 10:36:19;;;;;;;0.33;0.33;;;3.00;99.90;;;;;;5102948;27;20220;-57
2021/12/19 10:38:47;;;;;;;0.70;0.70;;;2.90;99.90;;;;;;5115358;27;20225;-44
2021/12/19 10:41:32;;;;;;;0.77;0.53;;;3.00;99.90;;;;;;5110403;27;20183;-44
2021/12/19 10:44:06;;;;;;;0.60;0.60;;;2.90;99.90;;;;;;5091453;27;20216;-57
2021/12/19 10:46:41;;;;;;;0.57;0.57;;;2.90;99.90;;;;;;5111126;27;20232;-58
2021/12/19 10:49:24;;;;;;;0.40;0.40;;;3.00;99.90;;;;;;5124371;27;20188;-54
2021/12/19 10:51:50;;;;;;;0.50;0.50;;;2.90;99.90;;;;;;5127044;27;20176;-57
2021/12/19 10:54:16;;;;;;;1.37;0.90;;;2.90;99.90;;;;;;5106704;27;20345;-52
2021/12/19 10:56:43;;;;;;;0.77;0.77;;;3.00;99.90;;;;;;5091467;27;20192;-47
2021/12/19 10:59:14;;;;;;;2.63;1.27;;;3.10;99.90;;;;;;5107621;27;20183;-53
2021/12/19 11:01:48;;;;;;;0.70;0.70;;;3.10;99.90;;;;;;5114012;27;20195;-57
2021/12/19 11:04:16;;;;;;;0.53;0.53;;;3.00;99.90;;;;;;5125183;27;20230;-52
2021/12/19 11:06:53;;;;;;;0.67;0.67;;;3.00;99.90;;;;;;5126140;27;20200;-55
2021/12/19 11:09:30;;;;;;;0.57;0.43;;;3.00;99.90;;;;;;5130118;27;20189;-52
2021/12/19 11:12:10;;;;;;;1.27;0.70;;;3.00;99.90;;;;;;5108001;27;20296;-54
2021/12/19 11:14:44;;;;;;;1.80;0.80;;;3.00;99.90;;;;;;5139637;27;20190;-54
2021/12/19 11:17:10;;;;;;;0.97;0.30;;;3.00;99.90;;;;;;5101129;27;20181;-51
2021/12/19 11:19:38;;;;;;;1.27;0.87;;;3.10;99.90;;;;;;5095656;27;20180;-46
2021/12/19 11:22:06;;;;;;;1.00;1.00;;;3.00;99.90;;;;;;5103048;27;20181;-49
2021/12/19 11:24:32;;;;;;;0.57;0.57;;;2.90;99.90;;;;;;5115833;27;20196;-48
2021/12/19 11:27:01;;;;;;;0.73;0.73;;;2.90;99.90;;;;;;5113109;27;20200;-50
2021/12/19 11:29:28;;;;;;;0.50;0.40;;;3.00;99.90;;;;;;5101908;27;20184;-58
2021/12/19 11:31:58;;;;;;;0.77;0.57;;;3.10;99.90;;;;;;5102262;27;20183;-49
2021/12/19 11:34:56;;;;;;;3.10;1.00;;;3.20;99.90;;;;;;5125620;27;20191;-51
2021/12/19 11:37:39;;;;;;;1.23;1.17;;;3.10;99.90;;;;;;5107394;27;20193;-45
2021/12/19 11:40:07;;;;;;;0.50;0.50;;;3.10;99.90;;;;;;5102995;27;20192;-49
2021/12/19 11:42:39;;;;;;;0.97;0.60;;;3.10;99.90;;;;;;5104881;27;20219;-49
2021/12/19 11:45:39;;;;;;;0.90;0.90;;;3.20;99.90;;;;;;5092639;27;20189;-46
2021/12/19 11:48:15;;;;;;;1.40;1.27;;;3.00;99.90;;;;;;5128815;27;20279;-48
2021/12/19 11:50:53;;;;;;;0.50;0.50;;;3.00;99.90;;;;;;5097091;27;20184;-47
2021/12/19 11:53:20;;;;;;;0.87;0.87;;;3.10;99.90;;;;;;5091812;27;20188;-48
2021/12/19 11:55:47;;;;;;;0.63;0.40;;;3.10;99.90;;;;;;5104133;27;20249;-54
2021/12/19 11:58:22;;;;;;;0.20;0.20;;;3.10;99.90;;;;;;5096554;27;20671;-55
2021/12/19 12:01:01;;;;;;;0.83;0.50;;;3.10;99.90;;;;;;5094605;28;20273;-45
2021/12/19 12:03:46;;;;;;;0.97;0.80;;;3.20;99.90;;;;;;5103660;27;20249;-49
2021/12/19 12:06:19;;;;;;;0.60;0.60;;;3.30;99.90;;;;;;5103607;27;20268;-54
2021/12/19 12:09:24;;;;;;;1.37;0.70;;;3.20;99.90;;;;;;5106119;27;20189;-50
2021/12/19 12:12:14;;;;;;;1.30;0.63;;;3.20;99.90;;;;;;5126139;27;20231;-56
2021/12/19 12:15:02;;;;;;;14.10;6.43;;;3.20;99.90;;;;;;5097610;27;20183;-49
2021/12/19 12:17:41;;;;;;;1.30;1.13;;;3.20;99.90;;;;;;5122705;27;20188;-56
2021/12/19 12:20:14;;;;;;;1.60;1.50;;;3.10;99.90;;;;;;5098864;27;20298;-54
2021/12/19 12:22:51;;;;;;;0.77;0.70;;;3.20;99.90;;;;;;5106208;27;20216;-52
2021/12/19 12:25:32;;;;;;;0.30;0.30;;;3.20;99.90;;;;;;5110923;27;20191;-48
2021/12/19 12:28:10;;;;;;;0.83;0.83;;;3.20;99.90;;;;;;5137007;27;20193;-50
2021/12/19 12:30:37;;;;;;;1.20;0.83;;;3.30;99.90;;;;;;5097289;27;20196;-50
2021/12/19 12:33:06;;;;;;;2.30;1.33;;;3.30;99.90;;;;;;5092823;27;20196;-50
2021/12/19 12:35:37;;;;;;;2.47;1.77;;;3.30;99.90;;;;;;5123292;27;20195;-44
2021/12/19 12:38:04;;;;;;;0.87;0.70;;;3.40;99.90;;;;;;5116481;27;20192;-48
2021/12/19 12:40:52;;;;;;;1.13;1.10;;;3.30;99.90;;;;;;5105066;27;20228;-52
2021/12/19 12:43:27;;;;;;;0.93;0.83;;;3.30;99.90;;;;;;5098721;27;20226;-53
2021/12/19 12:46:06;;;;;;;0.87;0.87;;;3.30;99.90;;;;;;5103545;27;20195;-48
2021/12/19 12:48:55;;;;;;;0.90;0.90;;;3.30;99.90;;;;;;5108150;27;20180;-57
2021/12/19 12:51:33;;;;;;;1.50;1.40;;;3.30;99.90;;;;;;5090605;28;20185;-56
2021/12/19 12:54:07;;;;;;;0.97;0.90;;;3.40;99.90;;;;;;5087210;28;20273;-57
2021/12/19 12:56:38;;;;;;;0.87;0.87;;;3.40;99.90;;;;;;5105164;27;20189;-58
2021/12/19 12:59:05;;;;;;;1.70;1.20;;;3.30;99.90;;;;;;5109004;27;20197;-48
2021/12/19 13:01:41;;;;;;;1.17;1.13;;;3.30;99.90;;;;;;5103121;27;20199;-57
2021/12/19 13:04:28;;;;;;;0.90;0.87;;;3.40;99.90;;;;;;5087526;28;20295;-50
2021/12/19 13:07:00;;;;;;;0.87;0.83;;;3.40;99.90;;;;;;5097432;27;20192;-59
2021/12/19 13:09:49;;;;;;;1.53;1.40;;;3.40;99.90;;;;;;5101340;27;20181;-47
2021/12/19 13:12:21;;;;;;;1.43;1.13;;;3.40;99.90;;;;;;5107934;27;20283;-47
2021/12/19 13:14:55;;;;;;;7.00;2.10;;;3.30;99.90;;;;;;5107014;27;20196;-54
2021/12/19 13:17:23;;;;;;;1.47;0.83;;;3.30;99.90;;;;;;5106911;27;20193;-53
2021/12/19 13:20:06;;;;;;;1.13;0.93;;;3.20;99.90;;;;;;5102679;28;20197;-58
2021/12/19 13:22:43;;;;;;;0.90;0.90;;;3.20;99.90;;;;;;5087104;28;20282;-59
2021/12/19 13:25:15;;;;;;;1.27;0.97;;;3.20;99.90;;;;;;5087977;28;20185;-54
2021/12/19 13:27:50;;;;;;;0.80;0.80;;;3.20;99.90;;;;;;5086395;28;20185;-53
2021/12/19 13:30:16;;;;;;;1.53;1.43;;;3.20;99.90;;;;;;5095002;27;20180;-54
2021/12/19 13:32:57;;;;;;;0.70;0.70;;;3.20;99.90;;;;;;5106712;27;20296;-51
2021/12/19 13:35:36;;;;;;;2.00;1.47;;;3.20;99.90;;;;;;5120850;27;20193;-48
2021/12/19 13:38:02;;;;;;;1.07;1.07;;;3.20;99.90;;;;;;5107842;27;20187;-52
2021/12/19 13:40:39;;;;;;;1.43;1.33;;;3.30;99.90;;;;;;5107188;27;20191;-51
2021/12/19 13:43:18;;;;;;;0.77;0.77;;;3.30;99.90;;;;;;5109130;27;20247;-57
2021/12/19 13:45:49;;;;;;;1.40;1.30;;;3.20;99.90;;;;;;5106768;27;20184;-49
2021/12/19 13:48:27;;;;;;;2.10;1.20;;;3.20;99.90;;;;;;5107641;27;20261;-59
2021/12/19 13:50:55;;;;;;;1.50;1.40;;;3.30;99.90;;;;;;5106215;27;20196;-51
2021/12/19 13:53:21;;;;;;;0.80;0.80;;;3.30;99.90;;;;;;5107773;27;20180;-46
2021/12/19 13:55:55;;;;;;;1.30;0.93;;;3.20;99.90;;;;;;5107937;27;20221;-46
2021/12/19 13:58:22;;;;;;;2.43;1.90;;;3.30;99.90;;;;;;5108308;27;20192;-46
2021/12/19 14:00:51;;;;;;;1.67;1.10;;;3.30;99.90;;;;;;5108595;27;20205;-48
2021/12/19 14:03:47;;;;;;;0.77;0.77;;;3.30;99.90;;;;;;5108186;27;20216;-52
2021/12/19 14:06:15;;;;;;;0.80;0.80;;;3.40;99.90;;;;;;5095425;27;20280;-47
2021/12/19 14:08:41;;;;;;;0.90;0.90;;;3.40;99.90;;;;;;5108517;27;20187;-46
2021/12/19 14:11:16;;;;;;;2.17;1.20;;;3.40;99.90;;;;;;5108379;27;20184;-45
2021/12/19 14:14:06;;;;;;;2.00;0.87;;;3.30;99.90;;;;;;5107970;27;20198;-49
2021/12/19 14:16:43;;;;;;;1.10;1.10;;;3.40;99.90;;;;;;5109142;27;20185;-51
2021/12/19 14:19:16;;;;;;;1.00;1.00;;;3.40;99.90;;;;;;5108678;27;20196;-50